createdAt,value
2022-10-21T00:00:46.448Z,13.00
2022-10-21T00:01:46.456Z,12.20
2022-10-21T00:02:46.425Z,11.50
2022-10-21T00:03:46.461Z,12.20
2022-10-21T00:04:46.396Z,11.90
2022-10-21T00:05:46.397Z,12.10
2022-10-21T00:06:46.379Z,11.90
2022-10-21T00:07:46.378Z,11.70
2022-10-21T00:08:46.436Z,12.70
2022-10-21T00:09:46.356Z,11.80
2022-10-21T00:10:46.338Z,12.00
2022-10-21T00:11:46.569Z,12.10
2022-10-21T00:12:46.314Z,13.00
2022-10-21T00:13:46.451Z,12.70
2022-10-21T00:14:46.300Z,12.00
2022-10-21T00:15:46.279Z,12.70
2022-10-21T00:16:46.271Z,12.40
2022-10-21T00:17:46.260Z,12.60
2022-10-21T00:18:46.249Z,12.10
2022-10-21T00:19:46.270Z,11.80
2022-10-21T00:20:46.230Z,12.20
2022-10-21T00:21:46.290Z,12.10
2022-10-21T00:22:46.201Z,12.10
2022-10-21T00:23:46.214Z,12.10
2022-10-21T00:24:46.182Z,12.00
2022-10-21T00:25:46.189Z,12.80
2022-10-21T00:26:46.160Z,12.60
2022-10-21T00:27:46.150Z,12.10
2022-10-21T00:28:46.145Z,11.90
2022-10-21T00:29:46.233Z,12.40
2022-10-21T00:30:46.112Z,11.50
2022-10-21T00:31:46.112Z,11.90
2022-10-21T00:32:46.092Z,11.90
2022-10-21T00:33:46.100Z,11.80
2022-10-21T00:34:46.072Z,11.90
2022-10-21T00:35:46.063Z,11.30
2022-10-21T00:36:46.074Z,12.40
2022-10-21T00:37:46.034Z,11.60
2022-10-21T00:38:46.048Z,11.80
2022-10-21T00:39:46.016Z,11.10
2022-10-21T00:40:46.015Z,11.40
2022-10-21T00:41:46.009Z,11.40
2022-10-21T00:42:46.961Z,10.90
2022-10-21T00:43:46.017Z,10.80
2022-10-21T00:44:45.967Z,10.60
2022-10-21T00:45:45.946Z,10.40
2022-10-21T00:46:45.946Z,10.30
2022-10-21T00:48:45.927Z,10.20
2022-10-21T00:49:45.927Z,10.10
2022-10-21T00:50:45.907Z,9.80
2022-10-21T00:51:45.878Z,9.20
2022-10-21T00:52:45.898Z,9.60
2022-10-21T00:53:45.890Z,10.40
2022-10-21T00:54:45.856Z,9.50
2022-10-21T00:55:45.850Z,10.10
2022-10-21T00:56:45.900Z,9.40
2022-10-21T00:57:45.817Z,9.80
2022-10-21T00:58:45.832Z,8.70
2022-10-21T00:59:45.809Z,8.70
2022-10-21T01:00:45.820Z,9.50
2022-10-21T01:01:45.781Z,8.70
2022-10-21T01:02:45.801Z,8.70
2022-10-21T01:03:45.771Z,9.00
2022-10-21T01:04:45.751Z,8.20
2022-10-21T01:05:45.806Z,8.10
2022-10-21T01:06:45.743Z,7.70
2022-10-21T01:07:46.130Z,7.40
2022-10-21T01:08:45.778Z,7.40
2022-10-21T01:09:45.693Z,7.50
2022-10-21T01:10:45.682Z,7.90
2022-10-21T01:11:45.675Z,7.70
2022-10-21T01:12:45.652Z,7.30
2022-10-21T01:13:45.654Z,6.90
2022-10-21T01:14:45.644Z,6.80
2022-10-21T01:15:45.630Z,7.20
2022-10-21T01:16:48.091Z,6.50
2022-10-21T01:17:45.976Z,6.90
2022-10-21T01:18:45.595Z,6.10
2022-10-21T01:19:45.587Z,6.30
2022-10-21T01:20:45.565Z,6.80
2022-10-21T01:21:45.555Z,7.50
2022-10-21T01:22:45.558Z,7.00
2022-10-21T01:23:45.536Z,7.90
2022-10-21T01:24:45.525Z,7.70
2022-10-21T01:25:45.509Z,7.10
2022-10-21T01:26:45.496Z,8.30
2022-10-21T01:27:45.487Z,8.60
2022-10-21T01:28:45.487Z,7.70
2022-10-21T01:29:45.487Z,8.50
2022-10-21T01:30:45.448Z,8.60
2022-10-21T01:31:45.448Z,8.60
2022-10-21T01:32:45.443Z,8.60
2022-10-21T01:33:45.490Z,8.80
2022-10-21T01:34:45.419Z,8.80
2022-10-21T01:35:45.399Z,8.50
2022-10-21T01:36:45.390Z,8.10
2022-10-21T01:37:45.432Z,9.10
2022-10-21T01:38:45.381Z,8.40
2022-10-21T01:39:45.366Z,8.50
2022-10-21T01:40:45.365Z,8.60
2022-10-21T01:41:45.331Z,8.50
2022-10-21T01:42:45.312Z,8.80
2022-10-21T01:43:45.322Z,9.00
2022-10-21T01:44:45.301Z,8.70
2022-10-21T01:45:45.302Z,9.60
2022-10-21T01:46:45.295Z,8.70
2022-10-21T01:47:45.273Z,9.10
2022-10-21T01:48:45.253Z,9.20
2022-10-21T01:49:45.273Z,9.40
2022-10-21T01:50:45.232Z,9.60
2022-10-21T01:51:45.219Z,9.60
2022-10-21T01:52:45.213Z,10.00
2022-10-21T01:53:45.213Z,9.40
2022-10-21T01:54:45.192Z,9.60
2022-10-21T01:55:45.177Z,9.70
2022-10-21T01:56:45.166Z,9.60
2022-10-21T01:57:45.144Z,9.60
2022-10-21T01:58:45.155Z,9.90
2022-10-21T01:59:45.135Z,10.00
2022-10-21T02:00:45.151Z,10.90
2022-10-21T02:01:45.105Z,10.20
2022-10-21T02:02:45.109Z,10.30
2022-10-21T02:03:45.096Z,11.00
2022-10-21T02:04:45.077Z,10.50
2022-10-21T02:05:45.070Z,11.30
2022-10-21T02:06:45.055Z,10.30
2022-10-21T02:07:45.045Z,10.40
2022-10-21T02:08:45.096Z,9.60
2022-10-21T02:09:45.035Z,10.10
2022-10-21T02:10:45.017Z,9.50
2022-10-21T02:11:44.997Z,9.70
2022-10-21T02:12:44.987Z,10.30
2022-10-21T02:13:44.986Z,10.30
2022-10-21T02:14:44.968Z,10.20
2022-10-21T02:15:44.947Z,10.20
2022-10-21T02:16:44.940Z,8.80
2022-10-21T02:17:44.947Z,10.20
2022-10-21T02:18:44.930Z,9.50
2022-10-21T02:19:44.909Z,10.10
2022-10-21T02:20:44.918Z,9.70
2022-10-21T02:21:44.880Z,9.70
2022-10-21T02:22:44.890Z,9.90
2022-10-21T02:23:44.878Z,9.50
2022-10-21T02:24:44.858Z,9.80
2022-10-21T02:25:44.841Z,9.60
2022-10-21T02:26:44.850Z,8.70
2022-10-21T02:27:44.832Z,8.90
2022-10-21T02:28:44.813Z,9.30
2022-10-21T02:29:44.807Z,9.20
2022-10-21T02:30:44.791Z,8.70
2022-10-21T02:31:44.773Z,9.50
2022-10-21T02:32:44.782Z,8.40
2022-10-21T02:33:44.753Z,8.40
2022-10-21T02:34:44.753Z,9.10
2022-10-21T02:35:44.733Z,8.90
2022-10-21T02:36:44.725Z,8.50
2022-10-21T02:37:44.735Z,8.60
2022-10-21T02:38:44.705Z,9.00
2022-10-21T02:39:44.684Z,8.50
2022-10-21T02:40:44.683Z,8.30
2022-10-21T02:41:44.673Z,8.60
2022-10-21T02:42:44.674Z,8.60
2022-10-21T02:43:44.644Z,8.20
2022-10-21T02:44:44.636Z,8.50
2022-10-21T02:45:44.630Z,7.50
2022-10-21T02:46:44.625Z,7.80
2022-10-21T02:47:44.638Z,8.30
2022-10-21T02:48:44.604Z,7.80
2022-10-21T02:49:44.586Z,7.80
2022-10-21T02:50:44.588Z,7.30
2022-10-21T02:51:44.578Z,7.70
2022-10-21T02:52:44.562Z,7.60
2022-10-21T02:53:44.547Z,7.70
2022-10-21T02:54:44.528Z,7.30
2022-10-21T02:55:44.528Z,7.60
2022-10-21T02:56:44.542Z,7.80
2022-10-21T02:57:44.488Z,7.00
2022-10-21T02:58:44.498Z,7.70
2022-10-21T02:59:44.478Z,7.60
2022-10-21T03:00:44.505Z,7.70
2022-10-21T03:01:44.448Z,6.70
2022-10-21T03:02:44.439Z,7.30
2022-10-21T03:03:44.431Z,7.50
2022-10-21T03:04:44.439Z,7.00
2022-10-21T03:05:44.411Z,7.20
2022-10-21T03:06:44.416Z,6.80
2022-10-21T03:07:44.392Z,6.50
2022-10-21T03:08:44.468Z,6.90
2022-10-21T03:09:44.362Z,7.70
2022-10-21T03:10:46.111Z,7.00
2022-10-21T03:11:44.341Z,6.40
2022-10-21T03:12:44.341Z,7.00
2022-10-21T03:13:44.335Z,6.00
2022-10-21T03:14:44.332Z,6.40
2022-10-21T03:15:44.296Z,5.60
2022-10-21T03:16:44.305Z,5.70
2022-10-21T03:17:44.273Z,5.60
2022-10-21T03:18:44.282Z,5.90
2022-10-21T03:19:44.254Z,5.90
2022-10-21T03:20:44.243Z,5.50
2022-10-21T03:21:44.233Z,5.60
2022-10-21T03:22:44.243Z,5.20
2022-10-21T03:23:44.225Z,5.10
2022-10-21T03:24:44.209Z,5.40
2022-10-21T03:25:44.211Z,5.00
2022-10-21T03:26:44.426Z,5.00
2022-10-21T03:27:44.164Z,4.80
2022-10-21T03:28:44.345Z,5.70
2022-10-21T03:29:44.166Z,4.70
2022-10-21T03:30:44.154Z,5.10
2022-10-21T03:31:44.127Z,5.30
2022-10-21T03:32:44.126Z,5.30
2022-10-21T03:33:44.106Z,6.00
2022-10-21T03:34:44.267Z,4.80
2022-10-21T03:35:44.086Z,4.60
2022-10-21T03:36:44.074Z,4.60
2022-10-21T03:37:44.095Z,4.80
2022-10-21T03:38:44.058Z,4.70
2022-10-21T03:39:44.048Z,4.80
2022-10-21T03:40:44.038Z,4.70
2022-10-21T03:41:44.028Z,5.00
2022-10-21T03:42:44.230Z,4.40
2022-10-21T03:43:44.011Z,4.20
2022-10-21T03:44:44.028Z,4.60
2022-10-21T03:45:43.980Z,4.80
2022-10-21T03:46:43.982Z,4.80
2022-10-21T03:47:43.980Z,4.50
2022-10-21T03:48:43.951Z,4.90
2022-10-21T03:49:43.950Z,4.70
2022-10-21T03:50:44.052Z,5.20
2022-10-21T03:51:43.934Z,5.50
2022-10-21T03:52:43.962Z,5.40
2022-10-21T03:53:44.095Z,5.10
2022-10-21T03:54:43.910Z,5.30
2022-10-21T03:55:43.883Z,5.20
2022-10-21T03:56:43.871Z,5.80
2022-10-21T03:57:43.917Z,5.50
2022-10-21T03:58:43.893Z,5.20
2022-10-21T03:59:43.843Z,5.50
2022-10-21T04:00:43.995Z,5.30
2022-10-21T04:01:43.880Z,6.10
2022-10-21T04:02:43.902Z,5.50
2022-10-21T04:03:43.795Z,5.40
2022-10-21T04:04:43.784Z,5.40
2022-10-21T04:05:43.782Z,5.10
2022-10-21T04:06:43.778Z,4.70
2022-10-21T04:07:43.833Z,4.80
2022-10-21T04:08:43.826Z,4.80
2022-10-21T04:09:43.726Z,4.70
2022-10-21T04:10:43.755Z,5.20
2022-10-21T04:11:43.707Z,4.70
2022-10-21T04:12:43.696Z,4.80
2022-10-21T04:13:43.808Z,4.50
2022-10-21T04:14:43.674Z,4.70
2022-10-21T04:15:43.669Z,4.70
2022-10-21T04:16:43.647Z,5.20
2022-10-21T04:17:43.647Z,4.90
2022-10-21T04:18:43.641Z,4.90
2022-10-21T04:19:43.626Z,5.30
2022-10-21T04:20:43.619Z,5.10
2022-10-21T04:21:43.598Z,5.10
2022-10-21T04:22:43.598Z,5.20
2022-10-21T04:23:43.590Z,5.50
2022-10-21T04:24:43.559Z,5.40
2022-10-21T04:25:43.559Z,5.60
2022-10-21T04:26:43.539Z,5.10
2022-10-21T04:27:43.540Z,5.10
2022-10-21T04:28:43.518Z,5.10
2022-10-21T04:29:43.512Z,4.90
2022-10-21T04:30:43.489Z,4.80
2022-10-21T04:31:43.545Z,5.00
2022-10-21T04:32:43.481Z,5.00
2022-10-21T04:33:43.463Z,5.10
2022-10-21T04:34:43.471Z,5.50
2022-10-21T04:35:43.441Z,4.90
2022-10-21T04:36:43.427Z,5.10
2022-10-21T04:37:43.449Z,4.90
2022-10-21T04:38:43.414Z,4.80
2022-10-21T04:39:43.392Z,4.80
2022-10-21T04:40:43.393Z,5.10
2022-10-21T04:41:43.373Z,4.90
2022-10-21T04:42:43.364Z,5.00
2022-10-21T04:43:43.353Z,4.40
2022-10-21T04:44:43.359Z,4.90
2022-10-21T04:45:43.334Z,4.60
2022-10-21T04:46:43.341Z,3.90
2022-10-21T04:47:43.316Z,4.60
2022-10-21T04:48:43.293Z,4.60
2022-10-21T04:49:43.284Z,4.50
2022-10-21T04:50:43.275Z,4.30
2022-10-21T04:51:43.331Z,4.30
2022-10-21T04:52:43.269Z,4.70
2022-10-21T04:53:43.236Z,4.20
2022-10-21T04:54:43.230Z,4.10
2022-10-21T04:55:43.239Z,4.30
2022-10-21T04:56:43.236Z,5.90
2022-10-21T04:57:43.214Z,4.30
2022-10-21T04:58:43.215Z,4.70
2022-10-21T04:59:43.189Z,4.10
2022-10-21T05:00:43.203Z,6.20
2022-10-21T05:01:43.148Z,5.10
2022-10-21T05:02:43.138Z,10.00
2022-10-21T05:03:43.138Z,4.90
2022-10-21T05:04:43.119Z,4.90
2022-10-21T05:05:43.110Z,4.30
2022-10-21T05:06:43.088Z,3.90
2022-10-21T05:07:43.088Z,3.90
2022-10-21T05:08:43.119Z,3.80
2022-10-21T05:09:43.060Z,3.50
2022-10-21T05:10:43.059Z,3.70
2022-10-21T05:11:43.053Z,3.60
2022-10-21T05:12:43.042Z,3.60
2022-10-21T05:13:43.061Z,3.20
2022-10-21T05:14:43.060Z,3.40
2022-10-21T05:15:43.009Z,3.20
2022-10-21T05:16:42.981Z,3.30
2022-10-21T05:17:43.002Z,3.70
2022-10-21T05:18:42.955Z,3.70
2022-10-21T05:19:42.964Z,3.40
2022-10-21T05:20:42.952Z,3.60
2022-10-21T05:21:42.945Z,3.50
2022-10-21T05:22:42.923Z,3.50
2022-10-21T05:23:43.023Z,3.80
2022-10-21T05:24:42.892Z,3.80
2022-10-21T05:25:42.903Z,3.80
2022-10-21T05:26:42.865Z,3.40
2022-10-21T05:27:42.872Z,3.90
2022-10-21T05:28:42.846Z,3.50
2022-10-21T05:29:42.844Z,3.70
2022-10-21T05:30:42.829Z,3.80
2022-10-21T05:31:42.843Z,4.40
2022-10-21T05:32:42.838Z,3.90
2022-10-21T05:33:42.796Z,3.90
2022-10-21T05:34:42.785Z,3.80
2022-10-21T05:35:42.786Z,3.90
2022-10-21T05:36:42.775Z,4.10
2022-10-21T05:37:42.804Z,4.00
2022-10-21T05:38:42.747Z,4.40
2022-10-21T05:39:42.739Z,3.70
2022-10-21T05:40:42.718Z,4.10
2022-10-21T05:41:45.479Z,3.70
2022-10-21T05:42:43.757Z,3.60
2022-10-21T05:43:42.723Z,3.80
2022-10-21T05:44:42.678Z,3.80
2022-10-21T05:45:42.672Z,4.60
2022-10-21T05:46:42.649Z,3.60
2022-10-21T05:47:42.658Z,3.50
2022-10-21T05:48:42.679Z,3.70
2022-10-21T05:49:42.619Z,4.20
2022-10-21T05:50:42.610Z,3.80
2022-10-21T05:51:42.597Z,3.50
2022-10-21T05:52:42.630Z,3.70
2022-10-21T05:53:42.580Z,3.80
2022-10-21T05:54:42.562Z,3.80
2022-10-21T05:55:42.552Z,4.00
2022-10-21T05:56:42.543Z,3.70
2022-10-21T05:57:42.623Z,3.70
2022-10-21T05:58:42.530Z,3.70
2022-10-21T05:59:42.531Z,3.90
2022-10-21T06:00:42.565Z,3.80
2022-10-21T06:01:42.504Z,3.70
2022-10-21T06:02:42.484Z,3.70
2022-10-21T06:03:42.472Z,3.60
2022-10-21T06:04:42.452Z,3.40
2022-10-21T06:05:42.454Z,3.70
2022-10-21T06:06:42.434Z,3.70
2022-10-21T06:07:42.599Z,4.10
2022-10-21T06:08:42.451Z,4.50
2022-10-21T06:09:42.396Z,4.00
2022-10-21T06:10:42.424Z,3.60
2022-10-21T06:11:42.389Z,3.60
2022-10-21T06:12:42.380Z,4.20
2022-10-21T06:13:42.345Z,3.60
2022-10-21T06:14:42.346Z,3.80
2022-10-21T06:15:42.326Z,9.20
2022-10-21T06:16:42.322Z,4.30
2022-10-21T06:17:42.356Z,3.70
2022-10-21T06:18:42.314Z,6.20
2022-10-21T06:19:44.849Z,3.60
2022-10-21T06:20:43.275Z,7.10
2022-10-21T06:21:42.282Z,3.40
2022-10-21T06:22:42.267Z,3.80
2022-10-21T06:23:42.239Z,3.90
2022-10-21T06:24:42.239Z,3.70
2022-10-21T06:25:42.321Z,6.60
2022-10-21T06:26:42.211Z,13.30
2022-10-21T06:27:42.232Z,4.70
2022-10-21T06:28:42.199Z,3.30
2022-10-21T06:29:42.179Z,3.20
2022-10-21T06:30:42.179Z,3.30
2022-10-21T06:31:42.150Z,3.50
2022-10-21T06:32:42.160Z,3.00
2022-10-21T06:33:42.226Z,2.90
2022-10-21T06:34:42.122Z,4.70
2022-10-21T06:35:42.100Z,4.90
2022-10-21T06:36:42.091Z,4.30
2022-10-21T06:37:42.103Z,3.40
2022-10-21T06:38:42.071Z,6.10
2022-10-21T06:39:42.062Z,3.40
2022-10-21T06:40:42.061Z,4.80
2022-10-21T06:41:42.232Z,3.40
2022-10-21T06:42:42.034Z,3.30
2022-10-21T06:43:42.234Z,3.10
2022-10-21T06:44:42.015Z,3.50
2022-10-21T06:45:42.013Z,3.60
2022-10-21T06:46:42.003Z,2.90
2022-10-21T06:47:42.272Z,2.80
2022-10-21T06:48:41.958Z,2.90
2022-10-21T06:49:41.992Z,3.30
2022-10-21T06:50:41.946Z,3.80
2022-10-21T06:51:42.055Z,3.10
2022-10-21T06:52:41.936Z,2.90
2022-10-21T06:53:41.930Z,2.80
2022-10-21T06:54:41.895Z,3.20
2022-10-21T06:55:41.903Z,3.70
2022-10-21T06:56:41.888Z,3.70
2022-10-21T06:57:41.878Z,3.00
2022-10-21T06:58:41.857Z,2.80
2022-10-21T06:59:41.897Z,2.60
2022-10-21T07:00:41.829Z,3.00
2022-10-21T07:01:59.140Z,3.30
2022-10-21T07:02:42.831Z,3.20
2022-10-21T07:03:41.913Z,3.10
2022-10-21T07:04:41.790Z,3.40
2022-10-21T07:05:41.781Z,3.30
2022-10-21T07:06:41.770Z,3.00
2022-10-21T07:07:42.042Z,2.90
2022-10-21T07:08:53.923Z,4.40
2022-10-21T07:09:42.799Z,2.90
2022-10-21T07:10:41.730Z,3.20
2022-10-21T07:11:41.721Z,3.40
2022-10-21T07:12:41.715Z,3.60
2022-10-21T07:13:41.692Z,3.40
2022-10-21T07:14:41.690Z,3.50
2022-10-21T07:15:41.687Z,3.10
2022-10-21T07:16:41.661Z,2.90
2022-10-21T07:17:41.985Z,2.80
2022-10-21T07:18:42.658Z,2.70
2022-10-21T07:19:41.640Z,3.30
2022-10-21T07:20:41.628Z,3.10
2022-10-21T07:21:41.604Z,2.70
2022-10-21T07:22:41.605Z,3.30
2022-10-21T07:23:41.606Z,2.70
2022-10-21T07:24:41.575Z,3.20
2022-10-21T07:25:41.565Z,3.30
2022-10-21T07:26:41.553Z,3.60
2022-10-21T07:27:43.563Z,3.50
2022-10-21T07:28:41.534Z,4.30
2022-10-21T07:29:41.526Z,6.80
2022-10-21T07:30:41.524Z,3.60
2022-10-21T07:31:41.507Z,4.80
2022-10-21T07:32:41.520Z,3.30
2022-10-21T07:33:41.556Z,3.60
2022-10-21T07:34:41.488Z,3.70
2022-10-21T07:35:41.466Z,3.50
2022-10-21T07:36:41.438Z,3.90
2022-10-21T07:37:41.683Z,3.30
2022-10-21T07:38:41.440Z,4.30
2022-10-21T07:39:41.442Z,4.10
2022-10-21T07:40:41.400Z,4.50
2022-10-21T07:41:41.407Z,5.00
2022-10-21T07:42:41.403Z,4.50
2022-10-21T07:43:41.401Z,4.30
2022-10-21T07:44:41.358Z,4.50
2022-10-21T07:45:41.349Z,4.80
2022-10-21T07:46:41.384Z,4.20
2022-10-21T07:47:41.608Z,4.00
2022-10-21T07:48:41.350Z,4.10
2022-10-21T07:49:41.312Z,3.70
2022-10-21T07:50:41.306Z,4.60
2022-10-21T07:51:41.336Z,4.40
2022-10-21T07:52:43.744Z,4.30
2022-10-21T07:53:42.264Z,4.60
2022-10-21T07:54:41.246Z,3.90
2022-10-21T07:55:41.245Z,3.60
2022-10-21T07:56:41.250Z,3.60
2022-10-21T07:57:41.223Z,3.40
2022-10-21T07:58:41.229Z,3.60
2022-10-21T07:59:41.206Z,3.30
2022-10-21T08:00:41.201Z,3.60
2022-10-21T08:01:41.318Z,3.40
2022-10-21T08:02:41.274Z,4.90
2022-10-21T08:03:41.153Z,4.40
2022-10-21T08:04:41.238Z,4.70
2022-10-21T08:05:41.145Z,4.30
2022-10-21T08:06:41.137Z,3.80
2022-10-21T08:07:41.114Z,4.20
2022-10-21T08:08:41.208Z,4.20
2022-10-21T08:09:41.116Z,5.50
2022-10-21T08:10:41.116Z,4.50
2022-10-21T08:11:41.086Z,4.30
2022-10-21T08:12:41.352Z,4.80
2022-10-21T08:13:41.058Z,4.90
2022-10-21T08:14:41.037Z,5.40
2022-10-21T08:15:41.029Z,5.20
2022-10-21T08:16:41.058Z,5.00
2022-10-21T08:17:41.022Z,5.70
2022-10-21T08:18:40.997Z,5.10
2022-10-21T08:19:40.997Z,4.90
2022-10-21T08:20:40.977Z,4.70
2022-10-21T08:21:40.968Z,5.30
2022-10-21T08:22:41.348Z,5.00
2022-10-21T08:23:40.941Z,5.50
2022-10-21T08:24:42.383Z,4.70
2022-10-21T08:25:40.919Z,4.90
2022-10-21T08:26:40.910Z,4.50
2022-10-21T08:27:40.893Z,4.60
2022-10-21T08:28:40.898Z,4.00
2022-10-21T08:29:40.882Z,4.70
2022-10-21T08:30:40.907Z,5.30
2022-10-21T08:31:40.865Z,4.40
2022-10-21T08:32:41.129Z,4.20
2022-10-21T08:33:40.837Z,6.70
2022-10-21T08:34:40.823Z,5.00
2022-10-21T08:35:40.814Z,6.40
2022-10-21T08:36:40.802Z,5.10
2022-10-21T08:37:40.813Z,4.60
2022-10-21T08:38:40.772Z,4.60
2022-10-21T08:39:40.763Z,4.30
2022-10-21T08:40:40.756Z,6.50
2022-10-21T08:41:40.795Z,4.70
2022-10-21T08:42:41.047Z,5.10
2022-10-21T08:43:40.734Z,4.70
2022-10-21T08:44:40.725Z,8.80
2022-10-21T08:45:40.721Z,5.90
2022-10-21T08:46:40.701Z,4.80
2022-10-21T08:47:40.844Z,4.90
2022-10-21T08:48:40.665Z,4.20
2022-10-21T08:49:40.670Z,4.50
2022-10-21T08:50:40.651Z,4.70
2022-10-21T08:51:40.647Z,4.70
2022-10-21T08:52:40.633Z,4.70
2022-10-21T08:53:40.628Z,4.70
2022-10-21T08:54:40.596Z,5.00
2022-10-21T08:55:40.605Z,4.50
2022-10-21T08:56:40.609Z,4.50
2022-10-21T08:57:40.915Z,4.90
2022-10-21T08:58:40.563Z,4.30
2022-10-21T08:59:40.556Z,4.30
2022-10-21T09:00:40.581Z,15.40
2022-10-21T09:01:40.558Z,8.70
2022-10-21T09:02:40.575Z,4.60
2022-10-21T09:03:40.509Z,6.20
2022-10-21T09:04:40.491Z,4.30
2022-10-21T09:05:40.569Z,4.00
2022-10-21T09:06:40.494Z,4.10
2022-10-21T09:07:41.068Z,5.10
2022-10-21T09:08:40.484Z,4.30
2022-10-21T09:09:40.449Z,4.70
2022-10-21T09:10:40.553Z,4.30
2022-10-21T09:11:40.568Z,4.10
2022-10-21T09:12:40.420Z,4.40
2022-10-21T09:13:40.402Z,3.70
2022-10-21T09:14:40.427Z,4.20
2022-10-21T09:15:40.394Z,4.30
2022-10-21T09:16:40.510Z,4.20
2022-10-21T09:17:40.735Z,3.90
2022-10-21T09:18:40.332Z,5.20
2022-10-21T09:19:40.364Z,4.50
2022-10-21T09:20:40.329Z,3.80
2022-10-21T09:21:40.305Z,4.30
2022-10-21T09:22:40.315Z,4.10
2022-10-21T09:23:40.338Z,4.60
2022-10-21T09:24:40.315Z,4.50
2022-10-21T09:25:40.277Z,4.50
2022-10-21T09:26:40.457Z,4.40
2022-10-21T09:27:54.912Z,4.20
2022-10-21T09:28:41.244Z,4.60
2022-10-21T09:29:40.234Z,4.60
2022-10-21T09:30:40.207Z,4.80
2022-10-21T09:31:40.225Z,4.80
2022-10-21T09:32:40.226Z,4.90
2022-10-21T09:33:40.177Z,4.80
2022-10-21T09:34:40.439Z,4.30
2022-10-21T09:35:40.167Z,4.70
2022-10-21T09:36:40.149Z,4.80
2022-10-21T09:37:40.468Z,4.90
2022-10-21T09:38:40.130Z,4.60
2022-10-21T09:39:40.109Z,5.10
2022-10-21T09:40:40.111Z,4.80
2022-10-21T09:41:40.109Z,5.10
2022-10-21T09:42:47.238Z,5.30
2022-10-21T09:43:41.082Z,5.00
2022-10-21T09:44:40.061Z,5.00
2022-10-21T09:45:40.051Z,5.30
2022-10-21T09:46:40.062Z,6.10
2022-10-21T09:47:40.041Z,5.30
2022-10-21T09:48:54.023Z,5.80
2022-10-21T09:50:05.914Z,4.90
2022-10-21T09:50:41.014Z,5.50
2022-10-21T09:51:39.993Z,4.80
2022-10-21T09:52:40.190Z,5.40
2022-10-21T09:53:43.530Z,5.40
2022-10-21T09:54:40.952Z,5.90
2022-10-21T09:55:39.953Z,5.10
2022-10-21T09:56:39.944Z,5.30
2022-10-21T09:57:39.914Z,5.10
2022-10-21T09:58:39.915Z,4.60
2022-10-21T09:59:39.920Z,4.90
2022-10-21T10:00:39.906Z,4.90
2022-10-21T10:01:39.962Z,4.80
2022-10-21T10:02:40.231Z,4.80
2022-10-21T10:03:39.856Z,5.00
2022-10-21T10:04:39.857Z,4.70
2022-10-21T10:05:39.835Z,4.60
2022-10-21T10:06:39.835Z,4.10
2022-10-21T10:07:39.814Z,4.50
2022-10-21T10:08:39.878Z,4.80
2022-10-21T10:09:39.789Z,4.70
2022-10-21T10:10:39.796Z,4.80
2022-10-21T10:11:39.781Z,7.90
2022-10-21T10:12:40.112Z,25.00
2022-10-21T10:13:39.747Z,7.30
2022-10-21T10:14:39.774Z,10.60
2022-10-21T10:15:39.738Z,6.70
2022-10-21T10:16:39.731Z,9.60
2022-10-21T10:17:39.719Z,5.60
2022-10-21T10:18:39.688Z,9.70
2022-10-21T10:19:39.691Z,9.00
2022-10-21T10:20:39.672Z,6.60
2022-10-21T10:21:39.671Z,6.10
2022-10-21T10:22:39.919Z,11.60
2022-10-21T10:23:39.642Z,14.90
2022-10-21T10:24:39.621Z,12.20
2022-10-21T10:25:39.624Z,9.40
2022-10-21T10:26:39.611Z,9.20
2022-10-21T10:27:39.603Z,8.60
2022-10-21T10:29:39.596Z,4.90
2022-10-21T10:30:39.561Z,5.10
2022-10-21T10:31:39.744Z,9.40
2022-10-21T10:32:39.848Z,30.00
2022-10-21T10:33:39.553Z,10.70
2022-10-21T10:34:39.545Z,8.60
2022-10-21T10:35:39.514Z,11.90
2022-10-21T10:36:39.504Z,12.40
2022-10-21T10:37:39.549Z,5.20
2022-10-21T10:38:39.474Z,5.00
2022-10-21T10:39:39.469Z,5.60
2022-10-21T10:40:39.493Z,5.00
2022-10-21T10:41:39.455Z,5.40
2022-10-21T10:42:39.621Z,4.30
2022-10-21T10:43:39.447Z,4.60
2022-10-21T10:44:39.408Z,4.90
2022-10-21T10:45:39.399Z,6.80
2022-10-21T10:46:39.496Z,5.70
2022-10-21T10:47:39.825Z,5.70
2022-10-21T10:48:39.381Z,4.60
2022-10-21T10:49:39.362Z,4.40
2022-10-21T10:50:39.339Z,4.80
2022-10-21T10:51:39.348Z,4.30
2022-10-21T10:52:39.329Z,4.20
2022-10-21T10:53:39.329Z,4.50
2022-10-21T10:54:39.319Z,4.60
2022-10-21T10:55:39.381Z,3.70
2022-10-21T10:56:39.288Z,4.00
2022-10-21T10:57:44.606Z,3.90
2022-10-21T10:58:40.262Z,3.80
2022-10-21T10:59:39.250Z,4.00
2022-10-21T11:00:39.278Z,4.10
2022-10-21T11:01:39.334Z,4.20
2022-10-21T11:02:39.213Z,4.00
2022-10-21T11:03:41.277Z,4.10
2022-10-21T11:04:39.202Z,4.10
2022-10-21T11:05:39.214Z,4.00
2022-10-21T11:06:39.192Z,4.00
2022-10-21T11:07:39.396Z,4.00
2022-10-21T11:08:39.190Z,3.70
2022-10-21T11:09:39.134Z,3.60
2022-10-21T11:10:39.146Z,4.40
2022-10-21T11:11:39.143Z,3.70
2022-10-21T11:12:39.105Z,3.70
2022-10-21T11:13:42.071Z,3.30
2022-10-21T11:14:39.088Z,3.50
2022-10-21T11:15:39.075Z,4.10
2022-10-21T11:16:45.040Z,4.30
2022-10-21T11:17:40.406Z,3.50
2022-10-21T11:18:39.037Z,3.50
2022-10-21T11:19:39.037Z,3.80
2022-10-21T11:20:39.040Z,3.90
2022-10-21T11:21:39.017Z,3.70
2022-10-21T11:22:38.999Z,3.60
2022-10-21T11:23:38.994Z,4.20
2022-10-21T11:24:38.991Z,3.70
2022-10-21T11:25:38.970Z,4.00
2022-10-21T11:26:38.969Z,3.60
2022-10-21T11:27:39.376Z,3.80
2022-10-21T11:28:38.941Z,3.70
2022-10-21T11:29:38.929Z,4.10
2022-10-21T11:30:38.909Z,4.40
2022-10-21T11:31:48.743Z,4.10
2022-10-21T11:32:39.890Z,5.70
2022-10-21T11:33:38.901Z,3.90
2022-10-21T11:34:38.864Z,3.50
2022-10-21T11:35:39.092Z,3.80
2022-10-21T11:36:38.853Z,3.20
2022-10-21T11:37:39.059Z,2.70
2022-10-21T11:38:38.854Z,2.90
2022-10-21T11:39:38.835Z,3.10
2022-10-21T11:40:38.806Z,3.10
2022-10-21T11:41:38.834Z,3.00
2022-10-21T11:42:39.065Z,2.70
2022-10-21T11:43:39.004Z,2.50
2022-10-21T11:44:38.756Z,2.60
2022-10-21T11:45:38.764Z,2.30
2022-10-21T11:46:38.747Z,2.70
2022-10-21T11:47:38.737Z,2.40
2022-10-21T11:48:38.717Z,2.40
2022-10-21T11:49:38.718Z,2.90
2022-10-21T11:50:38.699Z,2.50
2022-10-21T11:51:38.779Z,2.40
2022-10-21T11:52:39.009Z,2.50
2022-10-21T11:53:38.910Z,2.40
2022-10-21T11:54:45.512Z,2.60
2022-10-21T11:55:39.641Z,2.50
2022-10-21T11:56:38.641Z,2.50
2022-10-21T11:57:38.624Z,2.60
2022-10-21T11:58:38.611Z,2.30
2022-10-21T11:59:38.646Z,2.40
2022-10-21T12:00:38.584Z,2.10
2022-10-21T12:01:38.742Z,2.30
2022-10-21T12:02:38.726Z,2.20
2022-10-21T12:03:38.565Z,1.70
2022-10-21T12:04:38.545Z,2.00
2022-10-21T12:05:38.542Z,2.70
2022-10-21T12:06:38.537Z,2.20
2022-10-21T12:07:38.527Z,2.00
2022-10-21T12:08:41.367Z,1.70
2022-10-21T12:09:39.497Z,2.10
2022-10-21T12:10:38.486Z,2.10
2022-10-21T12:11:38.508Z,1.90
2022-10-21T12:12:38.902Z,1.70
2022-10-21T12:13:38.477Z,1.80
2022-10-21T12:14:38.442Z,2.10
2022-10-21T12:15:38.431Z,1.90
2022-10-21T12:16:38.461Z,1.60
2022-10-21T12:17:38.423Z,2.00
2022-10-21T12:18:38.403Z,1.70
2022-10-21T12:19:38.412Z,2.10
2022-10-21T12:20:38.382Z,1.80
2022-10-21T12:21:38.397Z,1.90
2022-10-21T12:22:38.609Z,2.00
2022-10-21T12:23:38.355Z,1.90
2022-10-21T12:24:38.341Z,1.60
2022-10-21T12:25:38.343Z,1.50
2022-10-21T12:27:38.692Z,1.90
2022-10-21T12:28:38.297Z,2.00
2022-10-21T12:29:38.288Z,2.00
2022-10-21T12:30:38.268Z,2.60
2022-10-21T12:31:38.292Z,2.40
2022-10-21T12:32:38.249Z,2.00
2022-10-21T12:33:38.240Z,1.90
2022-10-21T12:34:38.262Z,1.70
2022-10-21T12:35:38.252Z,1.70
2022-10-21T12:36:38.231Z,1.80
2022-10-21T12:37:38.515Z,2.00
2022-10-21T12:38:38.201Z,2.20
2022-10-21T12:39:38.172Z,1.70
2022-10-21T12:40:38.230Z,2.00
2022-10-21T12:41:38.175Z,1.90
2022-10-21T12:42:38.142Z,1.50
2022-10-21T12:43:38.132Z,1.90
2022-10-21T12:44:38.188Z,1.50
2022-10-21T12:45:38.133Z,1.80
2022-10-21T12:46:40.115Z,1.70
2022-10-21T12:47:38.343Z,1.90
2022-10-21T12:48:38.118Z,1.60
2022-10-21T12:49:38.068Z,2.00
2022-10-21T12:50:38.064Z,1.80
2022-10-21T12:51:38.060Z,2.00
2022-10-21T12:52:38.061Z,1.70
2022-10-21T12:53:38.052Z,1.40
2022-10-21T12:54:38.035Z,1.70
2022-10-21T12:55:38.007Z,1.50
2022-10-21T12:56:38.028Z,1.60
2022-10-21T12:57:38.328Z,1.30
2022-10-21T12:58:37.977Z,1.20
2022-10-21T12:59:37.959Z,1.50
2022-10-21T13:00:38.027Z,1.50
2022-10-21T13:01:37.971Z,1.40
2022-10-21T13:02:38.207Z,1.50
2022-10-21T13:03:37.922Z,1.40
2022-10-21T13:04:37.922Z,1.30
2022-10-21T13:05:37.890Z,1.40
2022-10-21T13:06:37.921Z,1.40
2022-10-21T13:07:37.873Z,1.40
2022-10-21T13:08:37.891Z,1.40
2022-10-21T13:09:37.851Z,1.20
2022-10-21T13:10:37.855Z,1.30
2022-10-21T13:11:37.848Z,1.40
2022-10-21T13:12:38.135Z,1.30
2022-10-21T13:13:37.825Z,1.40
2022-10-21T13:14:37.804Z,1.60
2022-10-21T13:15:37.790Z,1.40
2022-10-21T13:16:37.796Z,1.30
2022-10-21T13:17:37.765Z,1.30
2022-10-21T13:18:37.758Z,1.50